sensor_id;sensor_type;location;lat;lon;timestamp;pressure;altitude;pressure_sealevel;temperature;humidity
15932;BME280;8065;49.520;11.284;2023-02-22T00:01:09;97501.66;;;9.53;85.93
15932;BME280;8065;49.520;11.284;2023-02-22T00:03:47;97502.31;;;9.50;86.85
15932;BME280;8065;49.520;11.284;2023-02-22T00:06:16;97503.88;;;9.51;86.41
15932;BME280;8065;49.520;11.284;2023-02-22T00:08:46;97496.22;;;9.50;86.63
15932;BME280;8065;49.520;11.284;2023-02-22T00:11:14;97504.00;;;9.46;86.43
15932;BME280;8065;49.520;11.284;2023-02-22T00:13:41;97499.47;;;9.38;87.02
15932;BME280;8065;49.520;11.284;2023-02-22T00:16:12;97494.31;;;9.33;86.47
15932;BME280;8065;49.520;11.284;2023-02-22T00:18:39;97492.59;;;9.37;86.21
15932;BME280;8065;49.520;11.284;2023-02-22T00:21:05;97486.34;;;9.33;86.60
15932;BME280;8065;49.520;11.284;2023-02-22T00:23:35;97484.63;;;9.29;86.60
15932;BME280;8065;49.520;11.284;2023-02-22T00:26:05;97489.44;;;9.18;86.88
15932;BME280;8065;49.520;11.284;2023-02-22T00:28:35;97480.34;;;9.02;86.97
15932;BME280;8065;49.520;11.284;2023-02-22T00:31:02;97480.06;;;9.12;87.22
15932;BME280;8065;49.520;11.284;2023-02-22T00:33:29;97484.28;;;9.13;86.69
15932;BME280;8065;49.520;11.284;2023-02-22T00:35:56;97489.44;;;9.18;85.87
15932;BME280;8065;49.520;11.284;2023-02-22T00:38:24;97481.16;;;9.11;86.93
15932;BME280;8065;49.520;11.284;2023-02-22T00:40:51;97474.91;;;9.07;87.25
15932;BME280;8065;49.520;11.284;2023-02-22T00:43:18;97482.84;;;9.07;86.24
15932;BME280;8065;49.520;11.284;2023-02-22T00:45:45;97475.38;;;9.09;86.29
15932;BME280;8065;49.520;11.284;2023-02-22T00:48:11;97475.38;;;9.09;86.79
15932;BME280;8065;49.520;11.284;2023-02-22T00:50:38;97478.16;;;9.04;87.11
15932;BME280;8065;49.520;11.284;2023-02-22T00:53:05;97466.63;;;9.00;87.42
15932;BME280;8065;49.520;11.284;2023-02-22T00:55:35;97462.38;;;8.90;87.62
15932;BME280;8065;49.520;11.284;2023-02-22T00:58:03;97455.06;;;8.96;87.42
15932;BME280;8065;49.520;11.284;2023-02-22T01:00:33;97452.38;;;8.87;87.20
15932;BME280;8065;49.520;11.284;2023-02-22T01:03:01;97458.81;;;8.55;89.48
15932;BME280;8065;49.520;11.284;2023-02-22T01:05:29;97459.09;;;8.45;90.12
15932;BME280;8065;49.520;11.284;2023-02-22T01:07:57;97461.88;;;8.40;90.17
15932;BME280;8065;49.520;11.284;2023-02-22T01:10:26;97458.38;;;8.08;91.17
15932;BME280;8065;49.520;11.284;2023-02-22T01:12:54;97460.66;;;8.01;90.68
15932;BME280;8065;49.520;11.284;2023-02-22T01:15:23;97462.09;;;8.07;91.37
15932;BME280;8065;49.520;11.284;2023-02-22T01:17:52;97443.69;;;8.02;89.95
15932;BME280;8065;49.520;11.284;2023-02-22T01:20:20;97452.97;;;7.91;90.90
15932;BME280;8065;49.520;11.284;2023-02-22T01:22:49;97458.03;;;7.79;90.74
15932;BME280;8065;49.520;11.284;2023-02-22T01:25:19;97453.19;;;8.03;90.05
15932;BME280;8065;49.520;11.284;2023-02-22T01:27:46;97453.09;;;8.08;89.12
15932;BME280;8065;49.520;11.284;2023-02-22T01:30:15;97449.09;;;8.19;88.07
15932;BME280;8065;49.520;11.284;2023-02-22T01:32:42;97443.63;;;8.16;89.25
15932;BME280;8065;49.520;11.284;2023-02-22T01:35:13;97439.28;;;8.20;88.79
15932;BME280;8065;49.520;11.284;2023-02-22T01:37:40;97432.69;;;8.09;88.80
15932;BME280;8065;49.520;11.284;2023-02-22T01:40:09;97440.09;;;7.98;88.17
15932;BME280;8065;49.520;11.284;2023-02-22T01:42:36;97432.69;;;8.09;89.07
15932;BME280;8065;49.520;11.284;2023-02-22T01:45:39;97431.31;;;8.11;88.80
15932;BME280;8065;49.520;11.284;2023-02-22T01:48:08;97431.53;;;8.23;87.49
15932;BME280;8065;49.520;11.284;2023-02-22T01:50:41;97438.75;;;8.32;88.35
15932;BME280;8065;49.520;11.284;2023-02-22T01:53:10;97421.69;;;8.38;87.18
15932;BME280;8065;49.520;11.284;2023-02-22T01:55:39;97429.63;;;8.38;87.21
15932;BME280;8065;49.520;11.284;2023-02-22T01:58:06;97423.94;;;8.31;87.67
15932;BME280;8065;49.520;11.284;2023-02-22T02:00:34;97429.56;;;8.07;88.74
15932;BME280;8065;49.520;11.284;2023-02-22T02:03:04;97424.16;;;8.12;88.91
15932;BME280;8065;49.520;11.284;2023-02-22T02:05:32;97420.13;;;8.14;87.92
15932;BME280;8065;49.520;11.284;2023-02-22T02:08:08;97420.28;;;8.18;87.97
15932;BME280;8065;49.520;11.284;2023-02-22T02:10:39;97413.63;;;8.20;88.59
15932;BME280;8065;49.520;11.284;2023-02-22T02:13:07;97411.28;;;8.19;87.83
15932;BME280;8065;49.520;11.284;2023-02-22T02:15:34;97412.31;;;8.09;87.60
15932;BME280;8065;49.520;11.284;2023-02-22T02:18:03;97415.25;;;8.08;87.80
15932;BME280;8065;49.520;11.284;2023-02-22T02:20:35;97411.00;;;7.98;88.96
15932;BME280;8065;49.520;11.284;2023-02-22T02:23:21;97410.88;;;8.03;89.02
15932;BME280;8065;49.520;11.284;2023-02-22T02:26:15;97406.53;;;8.07;87.21
15932;BME280;8065;49.520;11.284;2023-02-22T02:29:16;97406.19;;;8.00;88.38
15932;BME280;8065;49.520;11.284;2023-02-22T02:32:01;97407.13;;;8.04;87.49
15932;BME280;8065;49.520;11.284;2023-02-22T02:34:34;97405.69;;;7.98;88.33
15932;BME280;8065;49.520;11.284;2023-02-22T02:37:08;97405.34;;;7.91;89.03
15932;BME280;8065;49.520;11.284;2023-02-22T02:39:40;97407.50;;;7.89;88.23
15932;BME280;8065;49.520;11.284;2023-02-22T02:42:11;97401.25;;;7.85;88.76
15932;BME280;8065;49.520;11.284;2023-02-22T02:44:42;97405.59;;;7.81;88.39
15932;BME280;8065;49.520;11.284;2023-02-22T02:47:16;97403.69;;;7.73;88.67
15932;BME280;8065;49.520;11.284;2023-02-22T02:49:47;97406.81;;;7.75;88.56
15932;BME280;8065;49.520;11.284;2023-02-22T02:52:17;97399.97;;;7.74;87.82
15932;BME280;8065;49.520;11.284;2023-02-22T02:54:47;97396.13;;;7.80;87.08
15932;BME280;8065;49.520;11.284;2023-02-22T02:57:14;97395.28;;;7.71;88.11
15932;BME280;8065;49.520;11.284;2023-02-22T02:59:40;97393.09;;;7.73;86.90
15932;BME280;8065;49.520;11.284;2023-02-22T03:02:18;97388.19;;;7.80;87.08
15932;BME280;8065;49.520;11.284;2023-02-22T03:04:59;97392.50;;;7.76;87.42
15932;BME280;8065;49.520;11.284;2023-02-22T03:07:40;97389.44;;;7.60;86.79
15932;BME280;8065;49.520;11.284;2023-02-22T03:10:27;97388.09;;;7.49;87.25
15932;BME280;8065;49.520;11.284;2023-02-22T03:13:04;97379.94;;;7.37;87.46
15932;BME280;8065;49.520;11.284;2023-02-22T03:15:39;97376.63;;;7.31;87.98
15932;BME280;8065;49.520;11.284;2023-02-22T03:18:14;97375.53;;;7.32;87.86
15932;BME280;8065;49.520;11.284;2023-02-22T03:20:49;97374.47;;;7.33;87.91
15932;BME280;8065;49.520;11.284;2023-02-22T03:23:22;97377.78;;;7.39;87.18
15932;BME280;8065;49.520;11.284;2023-02-22T03:25:51;97377.69;;;7.30;88.08
15932;BME280;8065;49.520;11.284;2023-02-22T03:28:20;97373.91;;;7.22;87.50
15932;BME280;8065;49.520;11.284;2023-02-22T03:30:53;97369.41;;;7.23;86.77
15932;BME280;8065;49.520;11.284;2023-02-22T03:33:26;97374.09;;;7.26;87.57
15932;BME280;8065;49.520;11.284;2023-02-22T03:36:00;97374.38;;;7.24;87.77
15932;BME280;8065;49.520;11.284;2023-02-22T03:38:31;97373.19;;;7.31;87.41
15932;BME280;8065;49.520;11.284;2023-02-22T03:41:00;97371.38;;;7.17;89.01
15932;BME280;8065;49.520;11.284;2023-02-22T03:43:31;97373.06;;;7.00;89.33
15932;BME280;8065;49.520;11.284;2023-02-22T03:46:00;97380.41;;;7.03;90.12
15932;BME280;8065;49.520;11.284;2023-02-22T03:48:35;97371.00;;;7.10;89.12
15932;BME280;8065;49.520;11.284;2023-02-22T03:51:04;97372.16;;;7.18;88.06
15932;BME280;8065;49.520;11.284;2023-02-22T03:53:33;97369.72;;;7.08;88.83
15932;BME280;8065;49.520;11.284;2023-02-22T03:56:03;97375.13;;;7.03;88.56
15932;BME280;8065;49.520;11.284;2023-02-22T03:58:33;97381.38;;;7.07;87.98
15932;BME280;8065;49.520;11.284;2023-02-22T04:01:02;97376.56;;;7.09;88.10
15932;BME280;8065;49.520;11.284;2023-02-22T04:03:30;97375.59;;;7.05;88.16
15932;BME280;8065;49.520;11.284;2023-02-22T04:05:57;97376.56;;;7.09;87.46
15932;BME280;8065;49.520;11.284;2023-02-22T04:08:23;97380.50;;;6.98;87.54
15932;BME280;8065;49.520;11.284;2023-02-22T04:10:50;97381.22;;;6.89;87.94
15932;BME280;8065;49.520;11.284;2023-02-22T04:13:16;97374.94;;;6.99;87.79
15932;BME280;8065;49.520;11.284;2023-02-22T04:15:43;97380.03;;;6.96;87.43
15932;BME280;8065;49.520;11.284;2023-02-22T04:18:09;97379.06;;;6.92;87.67
15932;BME280;8065;49.520;11.284;2023-02-22T04:20:37;97380.84;;;6.82;88.00
15932;BME280;8065;49.520;11.284;2023-02-22T04:23:03;97378.22;;;6.82;88.17
15932;BME280;8065;49.520;11.284;2023-02-22T04:25:30;97372.22;;;6.90;88.29
15932;BME280;8065;49.520;11.284;2023-02-22T04:27:57;97377.22;;;6.92;88.07
15932;BME280;8065;49.520;11.284;2023-02-22T04:30:24;97376.16;;;6.79;89.13
15932;BME280;8065;49.520;11.284;2023-02-22T04:32:52;97367.75;;;6.77;89.16
15932;BME280;8065;49.520;11.284;2023-02-22T04:35:19;97370.00;;;6.84;88.21
15932;BME280;8065;49.520;11.284;2023-02-22T04:37:48;97375.56;;;6.82;88.61
15932;BME280;8065;49.520;11.284;2023-02-22T04:40:15;97369.41;;;6.73;88.13
15932;BME280;8065;49.520;11.284;2023-02-22T04:42:42;97361.09;;;6.66;88.86
15932;BME280;8065;49.520;11.284;2023-02-22T04:45:10;97363.25;;;6.64;88.53
15932;BME280;8065;49.520;11.284;2023-02-22T04:47:37;97364.03;;;6.65;89.05
15932;BME280;8065;49.520;11.284;2023-02-22T04:50:04;97366.97;;;6.49;89.32
15932;BME280;8065;49.520;11.284;2023-02-22T04:52:31;97365.13;;;6.50;88.55
15932;BME280;8065;49.520;11.284;2023-02-22T04:54:59;97366.28;;;6.44;89.77
15932;BME280;8065;49.520;11.284;2023-02-22T04:57:26;97361.69;;;6.49;90.12
15932;BME280;8065;49.520;11.284;2023-02-22T04:59:52;97357.59;;;6.57;89.64
15932;BME280;8065;49.520;11.284;2023-02-22T05:02:25;97360.72;;;6.59;88.96
15932;BME280;8065;49.520;11.284;2023-02-22T05:04:52;97360.72;;;6.59;88.85
15932;BME280;8065;49.520;11.284;2023-02-22T05:07:18;97357.00;;;6.60;88.77
15932;BME280;8065;49.520;11.284;2023-02-22T05:09:45;97353.78;;;6.63;88.08
15932;BME280;8065;49.520;11.284;2023-02-22T05:12:13;97353.78;;;6.63;88.65
15932;BME280;8065;49.520;11.284;2023-02-22T05:14:39;97352.50;;;6.74;87.82
15932;BME280;8065;49.520;11.284;2023-02-22T05:17:07;97350.94;;;6.73;87.20
15932;BME280;8065;49.520;11.284;2023-02-22T05:19:34;97356.63;;;6.67;87.41
15932;BME280;8065;49.520;11.284;2023-02-22T05:22:01;97346.63;;;6.77;87.17
15932;BME280;8065;49.520;11.284;2023-02-22T05:24:29;97355.22;;;6.83;87.64
15932;BME280;8065;49.520;11.284;2023-02-22T05:26:56;97350.13;;;6.86;90.18
15932;BME280;8065;49.520;11.284;2023-02-22T05:29:24;97333.09;;;6.93;89.32
15932;BME280;8065;49.520;11.284;2023-02-22T05:31:50;97344.47;;;6.79;87.07
15932;BME280;8065;49.520;11.284;2023-02-22T05:34:17;97339.88;;;6.71;87.77
15932;BME280;8065;49.520;11.284;2023-02-22T05:36:44;97340.84;;;6.75;87.55
15932;BME280;8065;49.520;11.284;2023-02-22T05:39:10;97346.44;;;6.60;87.62
15932;BME280;8065;49.520;11.284;2023-02-22T05:41:37;97342.72;;;6.61;87.78
15932;BME280;8065;49.520;11.284;2023-02-22T05:44:04;97345.28;;;6.66;87.65
15932;BME280;8065;49.520;11.284;2023-02-22T05:46:33;97344.09;;;6.72;87.45
15932;BME280;8065;49.520;11.284;2023-02-22T05:49:00;97340.78;;;6.67;87.37
15932;BME280;8065;49.520;11.284;2023-02-22T05:51:27;97347.41;;;6.64;87.81
15932;BME280;8065;49.520;11.284;2023-02-22T05:53:53;97344.28;;;6.62;87.37
15932;BME280;8065;49.520;11.284;2023-02-22T05:56:21;97341.38;;;6.50;88.27
15932;BME280;8065;49.520;11.284;2023-02-22T05:58:48;97335.50;;;6.53;88.02
15932;BME280;8065;49.520;11.284;2023-02-22T06:01:15;97341.28;;;6.55;88.06
15932;BME280;8065;49.520;11.284;2023-02-22T06:03:45;97341.66;;;6.62;87.82
15932;BME280;8065;49.520;11.284;2023-02-22T06:06:13;97334.72;;;6.66;87.97
15932;BME280;8065;49.520;11.284;2023-02-22T06:08:39;97338.44;;;6.65;87.06
15932;BME280;8065;49.520;11.284;2023-02-22T06:11:06;97337.06;;;6.68;87.26
15932;BME280;8065;49.520;11.284;2023-02-22T06:13:33;97331.97;;;6.71;86.90
15932;BME280;8065;49.520;11.284;2023-02-22T06:16:00;97332.16;;;6.75;87.60
15932;BME280;8065;49.520;11.284;2023-02-22T06:18:27;97337.81;;;6.82;87.06
15932;BME280;8065;49.520;11.284;2023-02-22T06:20:56;97344.00;;;6.50;87.23
15932;BME280;8065;49.520;11.284;2023-02-22T06:23:23;97350.56;;;6.39;89.23
15932;BME280;8065;49.520;11.284;2023-02-22T06:25:50;97345.88;;;6.36;89.17
15932;BME280;8065;49.520;11.284;2023-02-22T06:28:17;97348.59;;;6.31;89.34
15932;BME280;8065;49.520;11.284;2023-02-22T06:30:43;97357.09;;;6.28;89.83
15932;BME280;8065;49.520;11.284;2023-02-22T06:33:10;97359.44;;;6.29;89.65
15932;BME280;8065;49.520;11.284;2023-02-22T06:35:37;97359.53;;;6.10;90.46
15932;BME280;8065;49.520;11.284;2023-02-22T06:38:05;97358.94;;;6.13;90.67
15932;BME280;8065;49.520;11.284;2023-02-22T06:40:31;97361.28;;;6.15;90.68
15932;BME280;8065;49.520;11.284;2023-02-22T06:42:57;97359.53;;;6.10;90.80
15932;BME280;8065;49.520;11.284;2023-02-22T06:45:24;97359.94;;;6.17;90.88
15932;BME280;8065;49.520;11.284;2023-02-22T06:47:51;97361.50;;;6.18;90.84
15932;BME280;8065;49.520;11.284;2023-02-22T06:50:21;97352.59;;;6.28;91.23
15932;BME280;8065;49.520;11.284;2023-02-22T06:52:47;97357.97;;;6.37;90.33
15932;BME280;8065;49.520;11.284;2023-02-22T06:55:20;97361.91;;;6.39;90.79
15932;BME280;8065;49.520;11.284;2023-02-22T06:57:47;97359.44;;;6.43;90.05
15932;BME280;8065;49.520;11.284;2023-02-22T07:00:15;97362.88;;;6.43;90.61
15932;BME280;8065;49.520;11.284;2023-02-22T07:02:42;97369.31;;;6.51;90.62
15932;BME280;8065;49.520;11.284;2023-02-22T07:05:09;97357.59;;;6.57;90.27
15932;BME280;8065;49.520;11.284;2023-02-22T07:07:36;97371.66;;;6.66;90.40
15932;BME280;8065;49.520;11.284;2023-02-22T07:10:04;97359.94;;;6.72;90.30
15932;BME280;8065;49.520;11.284;2023-02-22T07:12:32;97360.69;;;6.86;90.16
15932;BME280;8065;49.520;11.284;2023-02-22T07:14:59;97368.50;;;6.92;90.63
15932;BME280;8065;49.520;11.284;2023-02-22T07:17:25;97365.16;;;7.00;90.40
15932;BME280;8065;49.520;11.284;2023-02-22T07:19:52;97360.72;;;7.09;89.99
15932;BME280;8065;49.520;11.284;2023-02-22T07:22:18;97356.69;;;7.11;90.00
15932;BME280;8065;49.520;11.284;2023-02-22T07:24:45;97368.22;;;7.29;89.52
15932;BME280;8065;49.520;11.284;2023-02-22T07:27:12;97358.97;;;7.40;89.64
15932;BME280;8065;49.520;11.284;2023-02-22T07:29:41;97350.31;;;7.48;90.18
15932;BME280;8065;49.520;11.284;2023-02-22T07:32:07;97355.13;;;7.69;89.38
15932;BME280;8065;49.520;11.284;2023-02-22T07:34:34;97354.22;;;7.73;90.30
15932;BME280;8065;49.520;11.284;2023-02-22T07:37:01;97347.84;;;7.74;89.82
15932;BME280;8065;49.520;11.284;2023-02-22T07:39:28;97349.84;;;7.69;90.63
15932;BME280;8065;49.520;11.284;2023-02-22T07:41:54;97345.38;;;7.78;90.08
15932;BME280;8065;49.520;11.284;2023-02-22T07:44:21;97343.06;;;7.54;90.71
15932;BME280;8065;49.520;11.284;2023-02-22T07:46:48;97349.59;;;7.79;90.45
15932;BME280;8065;49.520;11.284;2023-02-22T07:49:15;97343.16;;;8.02;89.30
15932;BME280;8065;49.520;11.284;2023-02-22T07:51:42;97338.47;;;7.99;89.62
15932;BME280;8065;49.520;11.284;2023-02-22T07:54:08;97350.25;;;7.93;90.02
15932;BME280;8065;49.520;11.284;2023-02-22T07:56:34;97342.47;;;8.19;89.55
15932;BME280;8065;49.520;11.284;2023-02-22T07:59:01;97341.38;;;8.20;89.17
15932;BME280;8065;49.520;11.284;2023-02-22T08:01:28;97341.31;;;8.34;88.40
15932;BME280;8065;49.520;11.284;2023-02-22T08:03:57;97339.19;;;8.53;88.48
15932;BME280;8065;49.520;11.284;2023-02-22T08:06:23;97334.69;;;8.62;87.90
15932;BME280;8065;49.520;11.284;2023-02-22T08:08:52;97336.88;;;8.77;87.92
15932;BME280;8065;49.520;11.284;2023-02-22T08:11:18;97330.03;;;8.76;88.77
15932;BME280;8065;49.520;11.284;2023-02-22T08:13:45;97325.34;;;8.73;88.63
15932;BME280;8065;49.520;11.284;2023-02-22T08:16:11;97327.56;;;8.88;87.52
15932;BME280;8065;49.520;11.284;2023-02-22T08:18:38;97321.94;;;8.81;88.68
15932;BME280;8065;49.520;11.284;2023-02-22T08:21:06;97328.34;;;8.89;88.71
15932;BME280;8065;49.520;11.284;2023-02-22T08:23:33;97332.19;;;8.74;89.56
15932;BME280;8065;49.520;11.284;2023-02-22T08:26:04;97328.50;;;8.93;90.36
15932;BME280;8065;49.520;11.284;2023-02-22T08:28:30;97331.78;;;9.07;89.59
15932;BME280;8065;49.520;11.284;2023-02-22T08:30:57;97333.75;;;9.62;87.89
15932;BME280;8065;49.520;11.284;2023-02-22T08:33:23;97335.94;;;9.60;87.57
15932;BME280;8065;49.520;11.284;2023-02-22T08:35:50;97328.44;;;9.79;88.42
15932;BME280;8065;49.520;11.284;2023-02-22T08:38:20;97329.31;;;10.00;86.98
15932;BME280;8065;49.520;11.284;2023-02-22T08:40:48;97334.84;;;10.33;86.34
15932;BME280;8065;49.520;11.284;2023-02-22T08:43:15;97324.25;;;10.54;86.11
15932;BME280;8065;49.520;11.284;2023-02-22T08:45:43;97329.03;;;10.69;83.70
15932;BME280;8065;49.520;11.284;2023-02-22T08:48:09;97332.03;;;10.89;85.44
15932;BME280;8065;49.520;11.284;2023-02-22T08:50:36;97330.03;;;10.86;85.06
15932;BME280;8065;49.520;11.284;2023-02-22T08:53:04;97328.53;;;10.97;84.64
15932;BME280;8065;49.520;11.284;2023-02-22T08:55:33;97326.97;;;10.96;84.95
15932;BME280;8065;49.520;11.284;2023-02-22T08:58:00;97326.59;;;11.06;85.16
15932;BME280;8065;49.520;11.284;2023-02-22T09:00:28;97319.75;;;11.38;84.27
15932;BME280;8065;49.520;11.284;2023-02-22T09:02:57;97322.78;;;11.48;83.56
15932;BME280;8065;49.520;11.284;2023-02-22T09:05:24;97317.94;;;11.84;82.91
15932;BME280;8065;49.520;11.284;2023-02-22T09:07:51;97320.41;;;12.01;82.65
15932;BME280;8065;49.520;11.284;2023-02-22T09:10:20;97313.22;;;12.26;81.58
15932;BME280;8065;49.520;11.284;2023-02-22T09:12:49;97311.88;;;12.56;81.37
15932;BME280;8065;49.520;11.284;2023-02-22T09:15:16;97313.66;;;12.52;80.67
15932;BME280;8065;49.520;11.284;2023-02-22T09:17:43;97313.88;;;12.47;80.80
15932;BME280;8065;49.520;11.284;2023-02-22T09:20:10;97317.19;;;12.80;80.09
15932;BME280;8065;49.520;11.284;2023-02-22T09:22:38;97302.13;;;13.00;79.77
15932;BME280;8065;49.520;11.284;2023-02-22T09:25:05;97295.97;;;13.24;79.89
15932;BME280;8065;49.520;11.284;2023-02-22T09:27:32;97302.44;;;13.23;79.50
15932;BME280;8065;49.520;11.284;2023-02-22T09:30:00;97305.44;;;13.50;78.58
15932;BME280;8065;49.520;11.284;2023-02-22T09:32:27;97299.91;;;13.86;77.64
15932;BME280;8065;49.520;11.284;2023-02-22T09:34:53;97303.44;;;13.90;77.27
15932;BME280;8065;49.520;11.284;2023-02-22T09:37:20;97306.41;;;14.48;76.27
15932;BME280;8065;49.520;11.284;2023-02-22T09:39:47;97302.34;;;14.54;75.07
15932;BME280;8065;49.520;11.284;2023-02-22T09:42:16;97300.47;;;15.28;74.24
15932;BME280;8065;49.520;11.284;2023-02-22T09:44:48;97296.16;;;15.62;72.82
15932;BME280;8065;49.520;11.284;2023-02-22T09:47:21;97291.09;;;15.57;71.88
15932;BME280;8065;49.520;11.284;2023-02-22T09:49:59;97287.56;;;16.18;70.27
15932;BME280;8065;49.520;11.284;2023-02-22T09:52:30;97286.34;;;16.38;69.64
15932;BME280;8065;49.520;11.284;2023-02-22T09:55:07;97281.84;;;16.46;69.59
15932;BME280;8065;49.520;11.284;2023-02-22T09:57:37;97285.97;;;16.93;67.56
15932;BME280;8065;49.520;11.284;2023-02-22T10:00:11;97283.75;;;17.28;67.25
15932;BME280;8065;49.520;11.284;2023-02-22T10:02:49;97284.84;;;17.61;66.80
15932;BME280;8065;49.520;11.284;2023-02-22T10:05:20;97277.44;;;17.84;66.09
15932;BME280;8065;49.520;11.284;2023-02-22T10:07:55;97274.72;;;17.47;65.84
15932;BME280;8065;49.520;11.284;2023-02-22T10:10:26;97280.84;;;17.81;65.83
15932;BME280;8065;49.520;11.284;2023-02-22T10:13:00;97269.03;;;17.89;65.42
15932;BME280;8065;49.520;11.284;2023-02-22T10:15:45;97281.00;;;17.95;64.68
15932;BME280;8065;49.520;11.284;2023-02-22T10:18:42;97275.94;;;17.90;64.97
15932;BME280;8065;49.520;11.284;2023-02-22T10:21:23;97268.16;;;17.78;65.53
15932;BME280;8065;49.520;11.284;2023-02-22T10:24:00;97267.53;;;17.95;65.36
15932;BME280;8065;49.520;11.284;2023-02-22T10:26:34;97269.22;;;18.11;64.88
15932;BME280;8065;49.520;11.284;2023-02-22T10:29:06;97264.53;;;18.00;64.86
15932;BME280;8065;49.520;11.284;2023-02-22T10:31:40;97260.53;;;17.84;64.90
15932;BME280;8065;49.520;11.284;2023-02-22T10:34:13;97262.22;;;18.02;64.72
15932;BME280;8065;49.520;11.284;2023-02-22T10:36:40;97256.38;;;17.56;65.88
15932;BME280;8065;49.520;11.284;2023-02-22T10:39:14;97261.31;;;17.84;65.42
15932;BME280;8065;49.520;11.284;2023-02-22T10:41:48;97256.59;;;18.18;65.11
15932;BME280;8065;49.520;11.284;2023-02-22T10:44:16;97261.16;;;17.70;65.29
15932;BME280;8065;49.520;11.284;2023-02-22T10:46:44;97257.59;;;17.99;64.30
15932;BME280;8065;49.520;11.284;2023-02-22T10:49:18;97255.22;;;17.54;65.58
15932;BME280;8065;49.520;11.284;2023-02-22T10:51:47;97247.66;;;18.04;64.13
15932;BME280;8065;49.520;11.284;2023-02-22T10:54:21;97256.09;;;18.06;64.37
15932;BME280;8065;49.520;11.284;2023-02-22T10:56:52;97253.47;;;18.67;63.65
15932;BME280;8065;49.520;11.284;2023-02-22T10:59:29;97254.69;;;18.22;64.50
15932;BME280;8065;49.520;11.284;2023-02-22T11:01:57;97247.78;;;18.25;64.66
15932;BME280;8065;49.520;11.284;2023-02-22T11:04:25;97243.06;;;18.08;64.84
15932;BME280;8065;49.520;11.284;2023-02-22T11:07:08;97247.59;;;17.96;64.84
15932;BME280;8065;49.520;11.284;2023-02-22T11:09:47;97245.91;;;17.81;65.40
15932;BME280;8065;49.520;11.284;2023-02-22T11:12:18;97237.03;;;17.77;64.90
15932;BME280;8065;49.520;11.284;2023-02-22T11:14:45;97233.53;;;17.73;65.39
15932;BME280;8065;49.520;11.284;2023-02-22T11:17:17;97234.69;;;18.16;64.51
15932;BME280;8065;49.520;11.284;2023-02-22T11:19:47;97226.97;;;18.11;64.39
15932;BME280;8065;49.520;11.284;2023-02-22T11:22:21;97228.59;;;18.30;63.77
15932;BME280;8065;49.520;11.284;2023-02-22T11:24:52;97223.97;;;18.27;63.91
15932;BME280;8065;49.520;11.284;2023-02-22T11:27:26;97219.44;;;18.38;63.59
15932;BME280;8065;49.520;11.284;2023-02-22T11:30:05;97216.81;;;18.49;63.38
15932;BME280;8065;49.520;11.284;2023-02-22T11:32:33;97212.75;;;18.76;62.28
15932;BME280;8065;49.520;11.284;2023-02-22T11:35:21;97216.00;;;19.21;61.56
15932;BME280;8065;49.520;11.284;2023-02-22T11:38:08;97208.44;;;19.76;61.40
15932;BME280;8065;49.520;11.284;2023-02-22T11:40:35;97204.59;;;19.84;60.55
15932;BME280;8065;49.520;11.284;2023-02-22T11:43:06;97194.91;;;20.19;59.49
15932;BME280;8065;49.520;11.284;2023-02-22T11:45:36;97190.66;;;20.39;58.37
15932;BME280;8065;49.520;11.284;2023-02-22T11:48:06;97195.28;;;20.24;58.51
15932;BME280;8065;49.520;11.284;2023-02-22T11:50:40;97189.94;;;19.75;59.03
15932;BME280;8065;49.520;11.284;2023-02-22T11:53:25;97181.03;;;20.27;58.99
15932;BME280;8065;49.520;11.284;2023-02-22T11:56:09;97182.19;;;20.26;59.14
15932;BME280;8065;49.520;11.284;2023-02-22T11:58:43;97178.72;;;20.05;58.93
15932;BME280;8065;49.520;11.284;2023-02-22T12:01:16;97173.66;;;20.56;58.27
15932;BME280;8065;49.520;11.284;2023-02-22T12:04:15;97172.78;;;20.81;58.33
15932;BME280;8065;49.520;11.284;2023-02-22T12:06:51;97172.13;;;20.55;58.30
15932;BME280;8065;49.520;11.284;2023-02-22T12:09:27;97169.75;;;20.72;57.89
15932;BME280;8065;49.520;11.284;2023-02-22T12:12:07;97167.06;;;20.65;57.82
15932;BME280;8065;49.520;11.284;2023-02-22T12:14:42;97162.13;;;20.20;59.09
15932;BME280;8065;49.520;11.284;2023-02-22T12:17:20;97158.25;;;20.36;58.95
15932;BME280;8065;49.520;11.284;2023-02-22T12:19:50;97157.06;;;20.54;58.33
15932;BME280;8065;49.520;11.284;2023-02-22T12:22:23;97150.25;;;21.12;58.03
15932;BME280;8065;49.520;11.284;2023-02-22T12:24:55;97142.59;;;21.00;57.55
15932;BME280;8065;49.520;11.284;2023-02-22T12:27:26;97141.28;;;20.35;58.64
15932;BME280;8065;49.520;11.284;2023-02-22T12:29:55;97145.03;;;20.77;59.01
15932;BME280;8065;49.520;11.284;2023-02-22T12:32:32;97142.84;;;20.40;58.18
15932;BME280;8065;49.520;11.284;2023-02-22T12:35:07;97140.00;;;20.79;57.50
15932;BME280;8065;49.520;11.284;2023-02-22T12:37:46;97146.03;;;19.92;59.68
15932;BME280;8065;49.520;11.284;2023-02-22T12:40:20;97138.16;;;20.58;58.63
15932;BME280;8065;49.520;11.284;2023-02-22T12:42:54;97129.63;;;20.74;57.34
15932;BME280;8065;49.520;11.284;2023-02-22T12:45:29;97127.38;;;20.54;58.35
15932;BME280;8065;49.520;11.284;2023-02-22T12:48:06;97133.00;;;20.85;57.65
15932;BME280;8065;49.520;11.284;2023-02-22T12:50:36;97127.31;;;20.72;58.17
15932;BME280;8065;49.520;11.284;2023-02-22T12:53:11;97120.13;;;21.10;57.76
15932;BME280;8065;49.520;11.284;2023-02-22T12:55:42;97120.72;;;21.43;57.45
15932;BME280;8065;49.520;11.284;2023-02-22T12:58:18;97114.63;;;21.32;57.03
15932;BME280;8065;49.520;11.284;2023-02-22T13:00:50;97118.34;;;21.52;56.82
15932;BME280;8065;49.520;11.284;2023-02-22T13:03:28;97109.16;;;21.42;56.71
15932;BME280;8065;49.520;11.284;2023-02-22T13:06:05;97109.25;;;21.28;56.70
15932;BME280;8065;49.520;11.284;2023-02-22T13:08:40;97108.28;;;20.90;57.39
15932;BME280;8065;49.520;11.284;2023-02-22T13:11:16;97101.38;;;20.85;57.79
15932;BME280;8065;49.520;11.284;2023-02-22T13:14:02;97106.53;;;20.62;58.46
15932;BME280;8065;49.520;11.284;2023-02-22T13:16:39;97104.09;;;20.82;57.61
15932;BME280;8065;49.520;11.284;2023-02-22T13:19:28;97105.25;;;20.81;57.61
15932;BME280;8065;49.520;11.284;2023-02-22T13:22:04;97101.66;;;21.02;57.39
15932;BME280;8065;49.520;11.284;2023-02-22T13:24:39;97089.25;;;21.11;56.91